createdAt,value
2023-05-16T00:00:48.910Z,101615.09
2023-05-16T00:03:21.730Z,101612.75
2023-05-16T00:05:54.579Z,101618.34
2023-05-16T00:08:28.766Z,101614.78
2023-05-16T00:11:17.740Z,101616.03
2023-05-16T00:13:52.814Z,101622.41
2023-05-16T00:16:40.957Z,101621.63
2023-05-16T00:19:20.604Z,101625.66
2023-05-16T00:22:06.415Z,101630.47
2023-05-16T00:24:39.458Z,101618.53
2023-05-16T00:27:11.925Z,101625.34
2023-05-16T00:29:58.058Z,101616.63
2023-05-16T00:32:36.794Z,101617.44
2023-05-16T00:35:11.566Z,101620.69
2023-05-16T00:37:44.004Z,101621.91
2023-05-16T00:40:32.844Z,101620.38
2023-05-16T00:43:23.107Z,101621.63
2023-05-16T00:45:57.970Z,101630.03
2023-05-16T00:48:31.083Z,101620.38
2023-05-16T00:51:09.489Z,101628.44
2023-05-16T00:53:42.434Z,101628.44
2023-05-16T00:56:21.651Z,101624.13
2023-05-16T00:58:54.193Z,101619.75
2023-05-16T01:01:36.932Z,101624.56
2023-05-16T01:04:10.108Z,101623.78
2023-05-16T01:06:46.238Z,101634.19
2023-05-16T01:09:19.488Z,101637.47
2023-05-16T01:12:08.232Z,101640.25
2023-05-16T01:15:15.815Z,101637.47
2023-05-16T01:18:17.109Z,101635.91
2023-05-16T01:21:03.976Z,101639.94
2023-05-16T01:24:00.904Z,101639.19
2023-05-16T01:26:41.351Z,101643.19
2023-05-16T01:29:25.802Z,101643.19
2023-05-16T01:31:59.053Z,101640.84
2023-05-16T01:34:46.963Z,101632.47
2023-05-16T01:38:00.434Z,101644.44
2023-05-16T01:41:02.622Z,101641.34
2023-05-16T01:43:41.183Z,101648.94
2023-05-16T01:46:20.684Z,101648.16
2023-05-16T01:49:17.104Z,101652.22
2023-05-16T01:52:13.506Z,101649.84
2023-05-16T01:55:04.140Z,101655.44
2023-05-16T01:57:39.017Z,101658.22
2023-05-16T02:00:12.324Z,101660.69
2023-05-16T02:02:44.867Z,101660.69
2023-05-16T02:05:23.241Z,101662.72
2023-05-16T02:07:56.081Z,101667.53
2023-05-16T02:10:31.628Z,101661.16
2023-05-16T02:13:04.157Z,101674.38
2023-05-16T02:15:47.985Z,101670.03
2023-05-16T02:18:20.547Z,101670.03
2023-05-16T02:20:53.080Z,101675.63
2023-05-16T02:23:25.674Z,101668.44
2023-05-16T02:25:59.170Z,101668.44
2023-05-16T02:28:33.974Z,101664.13
2023-05-16T02:31:06.494Z,101674.03
2023-05-16T02:33:39.772Z,101676.53
2023-05-16T02:36:21.523Z,101682.13
2023-05-16T02:38:57.003Z,101686.16
2023-05-16T02:41:29.641Z,101683.38
2023-05-16T02:44:05.348Z,101688.97
2023-05-16T02:46:38.017Z,101690.19
2023-05-16T02:49:10.692Z,101699.06
2023-05-16T02:51:43.234Z,101698.25
2023-05-16T02:54:15.919Z,101698.25
2023-05-16T02:56:48.416Z,101705.88
2023-05-16T02:59:21.070Z,101710.69
2023-05-16T03:01:53.805Z,101711.91
2023-05-16T03:04:28.445Z,101717.50
2023-05-16T03:07:01.174Z,101715.97
2023-05-16T03:09:34.427Z,101721.56
2023-05-16T03:15:06.712Z,101721.22
2023-05-16T03:17:45.578Z,101724.81
2023-05-16T03:20:22.784Z,101722.00
2023-05-16T03:22:55.318Z,101725.28
2023-05-16T03:25:34.718Z,101720.13
2023-05-16T03:28:10.104Z,101724.16
2023-05-16T03:33:35.105Z,101729.75
2023-05-16T03:36:07.952Z,101734.56
2023-05-16T03:38:40.666Z,101735.81
2023-05-16T03:41:22.300Z,101745.44
2023-05-16T03:43:57.608Z,101744.66
2023-05-16T03:46:39.470Z,101746.69
2023-05-16T03:49:11.950Z,101745.09
2023-05-16T03:51:44.452Z,101748.69
2023-05-16T03:54:17.049Z,101744.31
2023-05-16T03:56:52.788Z,101743.56
2023-05-16T03:59:25.477Z,101747.56
2023-05-16T04:01:58.033Z,101746.81
2023-05-16T04:04:30.557Z,101751.63
2023-05-16T04:07:09.394Z,101750.03
2023-05-16T04:09:54.816Z,101761.22
2023-05-16T04:12:30.510Z,101757.66
2023-05-16T04:15:11.514Z,101759.69
2023-05-16T04:17:44.189Z,101767.28
2023-05-16T04:20:33.027Z,101763.69
2023-05-16T04:23:17.930Z,101762.16
2023-05-16T04:25:54.242Z,101766.50
2023-05-16T04:28:38.473Z,101762.16
2023-05-16T04:31:11.392Z,101771.78
2023-05-16T04:33:46.497Z,101774.59
2023-05-16T04:36:19.053Z,101777.38
2023-05-16T04:39:41.428Z,101779.84
2023-05-16T04:42:13.985Z,101785.44
2023-05-16T04:44:53.523Z,101783.88
2023-05-16T04:47:26.167Z,101789.47
2023-05-16T04:50:11.791Z,101797.84
2023-05-16T04:52:45.477Z,101792.69
2023-05-16T04:55:36.999Z,101799.53
2023-05-16T04:58:12.125Z,101801.56
2023-05-16T05:00:44.699Z,101798.75
2023-05-16T05:03:20.275Z,101805.56
2023-05-16T05:05:52.949Z,101802.00
2023-05-16T05:11:21.468Z,101802.44
2023-05-16T05:16:56.519Z,101812.09
2023-05-16T05:19:29.129Z,101811.31
2023-05-16T05:22:01.730Z,101808.97
2023-05-16T05:24:42.919Z,101809.72
2023-05-16T05:27:22.648Z,101812.97
2023-05-16T05:30:01.422Z,101812.97
2023-05-16T05:32:34.020Z,101817.03
2023-05-16T05:35:07.422Z,101815.47
2023-05-16T05:37:39.903Z,101821.06
2023-05-16T05:40:34.064Z,101821.06
2023-05-16T05:43:06.664Z,101819.50
2023-05-16T05:45:39.293Z,101825.06
2023-05-16T05:48:20.301Z,101830.66
2023-05-16T05:50:53.361Z,101838.28
2023-05-16T05:53:28.472Z,101835.47
2023-05-16T05:56:07.022Z,101832.34
2023-05-16T05:58:41.891Z,101838.72
2023-05-16T06:01:14.538Z,101837.94
2023-05-16T06:03:47.499Z,101842.75
2023-05-16T06:06:25.336Z,101846.78
2023-05-16T06:09:07.428Z,101846.00
2023-05-16T06:11:50.349Z,101845.22
2023-05-16T06:14:23.181Z,101848.03
2023-05-16T06:17:05.375Z,101854.38
2023-05-16T06:19:47.156Z,101859.66
2023-05-16T06:22:33.946Z,101856.84
2023-05-16T06:25:06.879Z,101860.09
2023-05-16T06:27:51.740Z,101864.47
2023-05-16T06:30:24.368Z,101868.03
2023-05-16T06:32:56.922Z,101862.44
2023-05-16T06:35:30.001Z,101863.69
2023-05-16T06:38:05.270Z,101864.47
2023-05-16T06:43:35.703Z,101870.03
2023-05-16T06:46:14.390Z,101870.03
2023-05-16T06:48:56.011Z,101869.28
2023-05-16T06:51:40.676Z,101866.47
2023-05-16T06:54:38.278Z,101869.28
2023-05-16T06:57:10.969Z,101870.03
2023-05-16T07:00:04.574Z,101866.47
2023-05-16T07:02:46.368Z,101870.81
2023-05-16T07:05:22.053Z,101870.03
2023-05-16T07:08:15.013Z,101872.84
2023-05-16T07:10:47.608Z,101878.44
2023-05-16T07:13:41.433Z,101870.81
2023-05-16T07:16:14.315Z,101875.63
2023-05-16T07:18:56.270Z,101877.97
2023-05-16T07:21:34.885Z,101877.19
2023-05-16T07:24:13.728Z,101877.19
2023-05-16T07:26:52.543Z,101881.56
2023-05-16T07:29:37.330Z,101883.09
2023-05-16T07:32:24.914Z,101885.91
2023-05-16T07:34:57.557Z,101883.88
2023-05-16T07:37:31.221Z,101881.88
2023-05-16T07:40:11.253Z,101883.44
2023-05-16T07:42:44.351Z,101880.84
2023-05-16T07:45:17.306Z,101877.59
2023-05-16T07:48:01.808Z,101888.66
2023-05-16T07:50:34.646Z,101891.00
2023-05-16T07:53:07.331Z,101889.75
2023-05-16T07:55:39.938Z,101888.84
2023-05-16T08:00:59.257Z,101896.31
2023-05-16T08:03:31.928Z,101891.50
2023-05-16T08:06:11.581Z,101897.44
2023-05-16T08:08:44.502Z,101891.84
2023-05-16T08:11:17.403Z,101904.13
2023-05-16T08:13:59.269Z,101899.66
2023-05-16T08:16:41.219Z,101898.41
2023-05-16T08:19:13.852Z,101902.75
2023-05-16T08:21:49.400Z,101899.97
2023-05-16T08:24:21.962Z,101897.63
2023-05-16T08:27:04.108Z,101903.69
2023-05-16T08:29:36.737Z,101907.25
2023-05-16T08:32:26.744Z,101901.66
2023-05-16T08:35:02.084Z,101893.25
2023-05-16T08:37:40.555Z,101903.22
2023-05-16T08:40:14.409Z,101890.03
2023-05-16T08:42:54.577Z,101894.38
2023-05-16T08:45:34.123Z,101900.44
2023-05-16T08:48:17.340Z,101901.66
2023-05-16T08:50:50.062Z,101896.53
2023-05-16T08:53:45.129Z,101898.53
2023-05-16T08:56:37.933Z,101897.75
2023-05-16T08:59:12.206Z,101891.38
2023-05-16T09:01:53.607Z,101892.94
2023-05-16T09:04:37.373Z,101894.50
2023-05-16T09:07:10.002Z,101884.88
2023-05-16T09:13:30.367Z,101889.59
2023-05-16T09:16:21.791Z,101881.97
2023-05-16T09:19:05.847Z,101884.75
2023-05-16T09:22:28.576Z,101875.94
2023-05-16T09:25:06.876Z,101879.06
2023-05-16T09:28:26.198Z,101880.59
2023-05-16T09:31:53.502Z,101882.16
2023-05-16T09:34:26.104Z,101882.16
2023-05-16T09:37:03.378Z,101878.13
2023-05-16T09:40:04.972Z,101879.69
2023-05-16T09:42:37.517Z,101875.66
2023-05-16T09:45:17.389Z,101875.97
2023-05-16T09:47:49.968Z,101881.91
2023-05-16T09:50:24.235Z,101884.69
2023-05-16T09:52:56.975Z,101886.72
2023-05-16T09:55:31.478Z,101899.91
2023-05-16T09:58:04.003Z,101907.53
2023-05-16T10:00:38.132Z,101906.28
2023-05-16T10:03:11.308Z,101895.88
2023-05-16T10:05:56.188Z,101898.69
2023-05-16T10:08:33.010Z,101896.97
2023-05-16T10:11:11.819Z,101889.38
2023-05-16T10:14:11.236Z,101883.31
2023-05-16T10:16:49.972Z,101887.22
2023-05-16T10:19:33.721Z,101890.34
2023-05-16T10:22:13.094Z,101880.75
2023-05-16T10:25:04.475Z,101879.50
2023-05-16T10:27:37.937Z,101882.63
2023-05-16T10:30:33.539Z,101876.59
2023-05-16T10:33:07.715Z,101870.84
2023-05-16T10:35:41.344Z,101880.81
2023-05-16T10:38:24.782Z,101882.38
2023-05-16T10:41:20.718Z,101874.28
2023-05-16T10:44:00.254Z,101876.66
2023-05-16T10:46:33.065Z,101876.19
2023-05-16T10:49:35.475Z,101871.38
2023-05-16T10:52:34.333Z,101865.63
2023-05-16T10:55:07.278Z,101861.16
2023-05-16T10:58:07.479Z,101857.88
2023-05-16T11:00:48.698Z,101869.06
2023-05-16T11:03:25.663Z,101869.38
2023-05-16T11:06:02.469Z,101876.56
2023-05-16T11:09:15.732Z,101876.88
2023-05-16T11:12:09.966Z,101876.41
2023-05-16T11:14:43.509Z,101873.16
2023-05-16T11:21:14.566Z,101877.81
2023-05-16T11:24:24.417Z,101892.13
2023-05-16T11:27:01.130Z,101882.53
2023-05-16T11:29:35.759Z,101895.25
2023-05-16T11:32:20.103Z,101885.63
2023-05-16T11:38:11.210Z,101892.78
2023-05-16T11:41:04.729Z,101891.56
2023-05-16T11:43:45.562Z,101897.16
2023-05-16T11:46:31.012Z,101896.69
2023-05-16T11:51:08.924Z,101896.69
2023-05-16T11:52:05.738Z,101895.91
2023-05-16T11:54:39.168Z,101893.44
2023-05-16T11:57:18.270Z,101892.53
2023-05-16T11:59:51.811Z,101890.03
2023-05-16T12:02:24.488Z,101883.97
2023-05-16T12:05:09.025Z,101894.38
2023-05-16T12:07:44.600Z,101903.13
2023-05-16T12:10:17.244Z,101903.56
2023-05-16T12:12:55.318Z,101904.34
2023-05-16T12:15:28.725Z,101915.84
2023-05-16T12:18:02.423Z,101906.22
2023-05-16T12:20:35.423Z,101904.53
2023-05-16T12:23:12.618Z,101905.63
2023-05-16T12:25:47.743Z,101907.19
2023-05-16T12:28:39.268Z,101907.97
2023-05-16T12:31:36.930Z,101907.19
2023-05-16T12:34:17.204Z,101905.63
2023-05-16T12:39:40.286Z,101902.50
2023-05-16T12:42:13.729Z,101908.09
2023-05-16T12:44:46.721Z,101906.56
2023-05-16T12:47:22.610Z,101903.75
2023-05-16T12:49:55.696Z,101912.94
2023-05-16T12:52:29.214Z,101908.09
2023-05-16T12:55:01.766Z,101912.47
2023-05-16T12:57:45.162Z,101914.03
2023-05-16T13:00:21.772Z,101916.81
2023-05-16T13:02:54.650Z,101925.22
2023-05-16T13:05:27.397Z,101926.47
2023-05-16T13:07:59.931Z,101930.50
2023-05-16T13:10:36.135Z,101925.38
2023-05-16T13:13:13.678Z,101928.63
2023-05-16T13:15:49.657Z,101931.44
2023-05-16T13:18:22.260Z,101935.00
2023-05-16T13:21:00.879Z,101925.81
2023-05-16T13:23:36.804Z,101931.44
2023-05-16T13:26:18.520Z,101937.81
2023-05-16T13:28:53.168Z,101938.56
2023-05-16T13:31:25.820Z,101942.63
2023-05-16T13:34:04.237Z,101942.63
2023-05-16T13:36:52.364Z,101937.47
2023-05-16T13:42:22.463Z,101946.66
2023-05-16T13:45:05.118Z,101943.84
2023-05-16T13:47:41.855Z,101939.06
2023-05-16T13:50:17.580Z,101932.19
2023-05-16T13:52:50.121Z,101938.56
2023-05-16T13:55:28.929Z,101945.75
2023-05-16T13:58:04.639Z,101939.38
2023-05-16T14:00:47.685Z,101951.34
2023-05-16T14:06:07.216Z,101952.88
2023-05-16T14:08:40.278Z,101955.25
2023-05-16T14:11:29.129Z,101953.66
2023-05-16T14:14:26.999Z,101961.28
2023-05-16T14:16:59.511Z,101968.13
2023-05-16T14:19:40.974Z,101953.81
2023-05-16T14:22:22.270Z,101964.25
2023-05-16T14:25:04.704Z,101959.09
2023-05-16T14:27:42.967Z,101963.44
2023-05-16T14:30:15.576Z,101958.66
2023-05-16T14:32:48.169Z,101955.03
2023-05-16T14:35:20.745Z,101956.28
2023-05-16T14:37:53.263Z,101957.84
2023-05-16T14:40:25.985Z,101962.66
2023-05-16T14:42:58.598Z,101962.34
2023-05-16T14:45:31.305Z,101958.78
2023-05-16T14:48:06.756Z,101953.63
2023-05-16T14:50:40.736Z,101956.91
2023-05-16T14:53:13.283Z,101964.50
2023-05-16T14:55:49.165Z,101967.78
2023-05-16T14:58:21.728Z,101974.59
2023-05-16T15:01:05.797Z,101971.03
2023-05-16T15:03:53.696Z,101968.66
2023-05-16T15:06:37.036Z,101971.47
2023-05-16T15:09:14.805Z,101970.25
2023-05-16T15:11:47.377Z,101969.44
2023-05-16T15:14:20.089Z,101964.66
2023-05-16T15:16:52.845Z,101973.03
2023-05-16T15:19:40.812Z,101966.97
2023-05-16T15:22:18.737Z,101966.19
2023-05-16T15:24:51.265Z,101960.59
2023-05-16T15:27:23.980Z,101959.06
2023-05-16T15:29:56.533Z,101960.59
2023-05-16T15:32:38.265Z,101967.78
2023-05-16T15:35:24.115Z,101962.16
2023-05-16T15:38:08.940Z,101966.53
2023-05-16T15:40:41.450Z,101968.53
2023-05-16T15:43:14.107Z,101970.09
2023-05-16T15:45:47.013Z,101965.75
2023-05-16T15:48:22.177Z,101964.97
2023-05-16T15:50:57.718Z,101969.00
2023-05-16T15:53:36.438Z,101969.00
2023-05-16T15:56:19.397Z,101970.25
2023-05-16T15:59:00.900Z,101973.03
2023-05-16T16:01:33.423Z,101971.47
2023-05-16T16:04:08.077Z,101968.66
2023-05-16T16:06:57.085Z,101963.06
2023-05-16T16:09:35.507Z,101968.66
2023-05-16T16:12:16.964Z,101963.06
2023-05-16T16:14:52.780Z,101968.66
2023-05-16T16:17:37.552Z,101961.53
2023-05-16T16:20:10.728Z,101971.16
2023-05-16T16:22:43.225Z,101966.78
2023-05-16T16:25:16.118Z,101966.78
2023-05-16T16:27:48.669Z,101961.19
2023-05-16T16:30:40.549Z,101962.41
2023-05-16T16:33:13.196Z,101960.88
2023-05-16T16:35:46.894Z,101960.88
2023-05-16T16:38:30.847Z,101976.41
2023-05-16T16:41:08.659Z,101964.00
2023-05-16T16:46:36.243Z,101971.91
2023-05-16T16:49:08.862Z,101976.75
2023-05-16T16:51:41.812Z,101972.72
2023-05-16T16:57:51.527Z,101975.97
2023-05-16T17:28:03.360Z,102002.66
2023-05-16T17:34:06.124Z,102016.31
2023-05-16T17:40:21.520Z,102022.38
2023-05-16T17:47:04.328Z,102027.66
2023-05-16T17:53:10.279Z,102024.53
2023-05-16T17:55:51.050Z,102037.28
2023-05-16T17:58:27.321Z,102028.09
2023-05-16T18:01:05.166Z,102035.56
2023-05-16T18:03:38.694Z,102033.56
2023-05-16T18:06:17.524Z,102032.31
2023-05-16T18:08:57.678Z,102035.13
2023-05-16T18:11:33.045Z,102026.72
2023-05-16T18:21:18.092Z,102034.78
2023-05-16T18:34:19.501Z,102048.13
2023-05-16T18:41:00.276Z,102043.00
2023-05-16T18:49:18.111Z,102050.28
2023-05-16T18:52:16.993Z,102045.16
2023-05-16T18:57:36.401Z,102049.94
2023-05-16T19:00:31.333Z,102056.78
2023-05-16T19:09:52.844Z,102063.31
2023-05-16T19:12:25.676Z,102065.75
2023-05-16T19:14:58.315Z,102064.97
2023-05-16T19:23:52.450Z,102077.84
2023-05-16T19:26:25.061Z,102080.63
2023-05-16T19:29:24.085Z,102079.09
2023-05-16T19:31:58.432Z,102088.69
2023-05-16T19:34:31.053Z,102091.50
2023-05-16T19:37:09.019Z,102089.16
2023-05-16T19:39:42.305Z,102094.78
2023-05-16T19:42:36.302Z,102093.19
2023-05-16T19:45:09.490Z,102101.59
2023-05-16T19:47:54.677Z,102112.00
2023-05-16T19:50:37.752Z,102106.06
2023-05-16T19:53:35.725Z,102110.09
2023-05-16T19:56:12.080Z,102108.50
2023-05-16T19:58:44.814Z,102104.16
2023-05-16T20:04:47.534Z,102110.19
2023-05-16T20:07:21.071Z,102113.44
2023-05-16T20:12:51.379Z,102115.88
2023-05-16T20:35:51.451Z,102138.16
2023-05-16T20:38:24.352Z,102139.41
2023-05-16T20:41:14.853Z,102137.84
2023-05-16T20:50:00.863Z,102141.06
2023-05-16T20:52:33.451Z,102134.69
2023-05-16T20:58:21.318Z,102141.22
2023-05-16T21:04:38.475Z,102154.84
2023-05-16T21:07:18.995Z,102148.47
2023-05-16T21:09:54.630Z,102151.72
2023-05-16T21:12:27.677Z,102157.31
2023-05-16T21:15:00.339Z,102155.72
2023-05-16T21:34:12.125Z,102157.53
2023-05-16T21:36:44.808Z,102156.75
2023-05-16T21:39:17.553Z,102167.16
2023-05-16T21:41:53.982Z,102164.34
2023-05-16T21:44:27.018Z,102171.19
2023-05-16T21:47:04.137Z,102169.59
2023-05-16T21:49:39.762Z,102175.19
2023-05-16T21:52:51.105Z,102183.25
2023-05-16T21:55:41.095Z,102188.84
2023-05-16T21:58:14.629Z,102184.47
2023-05-16T22:00:47.510Z,102187.28
2023-05-16T22:07:24.154Z,102193.75
2023-05-16T22:09:57.346Z,102188.97
2023-05-16T22:12:40.010Z,102197.00
2023-05-16T22:15:12.628Z,102193.41
2023-05-16T22:17:54.772Z,102195.41
2023-05-16T22:23:35.838Z,102184.69
2023-05-16T22:26:08.466Z,102183.91
2023-05-16T22:29:05.238Z,102187.16
2023-05-16T22:31:40.285Z,102188.38
2023-05-16T22:37:15.603Z,102191.19
2023-05-16T22:40:09.789Z,102193.97
2023-05-16T22:51:09.845Z,102194.88
2023-05-16T22:54:06.345Z,102198.88
2023-05-16T22:56:39.066Z,102200.91
2023-05-16T23:02:07.124Z,102170.69
2023-05-16T23:07:59.388Z,102199.00
2023-05-16T23:10:47.459Z,102199.44
2023-05-16T23:13:20.055Z,102199.44
2023-05-16T23:16:11.459Z,102195.06
2023-05-16T23:19:05.549Z,102195.53
2023-05-16T23:21:58.399Z,102186.34
2023-05-16T23:24:30.951Z,102193.16
2023-05-16T23:33:29.461Z,102205.56
2023-05-16T23:36:05.926Z,102204.00
2023-05-16T23:38:39.570Z,102203.22
2023-05-16T23:41:34.621Z,102207.22
2023-05-16T23:44:10.781Z,102210.50
2023-05-16T23:49:35.986Z,102213.28
2023-05-16T23:52:08.747Z,102220.09
2023-05-16T23:54:41.370Z,102213.72
2023-05-16T23:57:14.021Z,102212.94
2023-05-16T23:59:46.573Z,102218.97
